Time;durP1;ratioP1;P1;durP2;ratioP2;P2;SDS_P1;SDS_P2;PMS_P1;PMS_P2;Temp;Humidity;BMP_temperature;BMP_pressure;BME280_temperature;BME280_humidity;BME280_pressure;Samples;Min_cycle;Max_cycle;Signal;HPM_P1;HPM_P2
2022/04/10 00:00:52;;;;;;;11.45;3.10;;;7.10;99.90;;;;;;4957854;29;20023;-81
2022/04/10 00:03:19;;;;;;;14.65;3.00;;;7.10;99.90;;;;;;4959610;28;20115;-81
2022/04/10 00:05:45;;;;;;;7.55;2.83;;;7.10;99.90;;;;;;4977257;28;20015;-81
2022/04/10 00:08:11;;;;;;;10.35;2.92;;;7.20;99.90;;;;;;4977174;28;20032;-81
2022/04/10 00:10:36;;;;;;;8.98;2.90;;;7.20;99.90;;;;;;4976820;28;20113;-81
2022/04/10 00:13:02;;;;;;;7.38;2.30;;;7.00;99.90;;;;;;4959826;28;20062;-80
2022/04/10 00:15:28;;;;;;;4.57;1.85;;;6.90;99.90;;;;;;4963324;28;20082;-81
2022/04/10 00:17:54;;;;;;;8.15;2.50;;;7.00;99.90;;;;;;4957802;28;20031;-81
2022/04/10 00:20:19;;;;;;;10.63;2.55;;;7.00;99.90;;;;;;4957381;28;20510;-81
2022/04/10 00:22:47;;;;;;;6.47;2.60;;;7.00;99.90;;;;;;4957329;28;20110;-80
2022/04/10 00:25:15;;;;;;;8.75;2.53;;;6.90;99.90;;;;;;4957334;28;20019;-81
2022/04/10 00:27:41;;;;;;;9.10;2.28;;;6.90;99.90;;;;;;4957641;29;20027;-81
2022/04/10 00:30:08;;;;;;;8.50;3.40;;;6.80;99.90;;;;;;4957553;29;20166;-80
2022/04/10 00:32:34;;;;;;;14.90;3.35;;;6.80;99.90;;;;;;4957572;29;20390;-81
2022/04/10 00:35:00;;;;;;;21.50;4.28;;;6.80;99.90;;;;;;4957084;28;20103;-80
2022/04/10 00:37:26;;;;;;;18.85;5.32;;;6.80;99.90;;;;;;4957527;29;20031;-81
2022/04/10 00:39:52;;;;;;;18.92;4.43;;;6.70;99.90;;;;;;4965575;28;20022;-80
2022/04/10 00:42:18;;;;;;;20.38;4.18;;;6.70;99.90;;;;;;4957212;28;20039;-81
2022/04/10 00:44:44;;;;;;;18.08;4.13;;;6.80;99.90;;;;;;4957084;28;20031;-81
2022/04/10 00:47:10;;;;;;;17.13;5.05;;;6.80;99.90;;;;;;4957568;28;20114;-81
2022/04/10 00:49:36;;;;;;;16.17;3.92;;;6.80;99.90;;;;;;4957124;28;20383;-81
2022/04/10 00:52:06;;;;;;;19.77;3.42;;;6.70;99.90;;;;;;4956803;28;20031;-81
2022/04/10 00:54:33;;;;;;;16.00;4.03;;;6.70;99.90;;;;;;4946643;29;20499;-81
2022/04/10 00:57:01;;;;;;;18.10;4.70;;;6.60;99.90;;;;;;4956471;29;20015;-81
2022/04/10 00:59:28;;;;;;;11.73;3.50;;;6.60;99.90;;;;;;4956978;28;20024;-81
2022/04/10 01:01:54;;;;;;;9.50;3.28;;;6.60;99.90;;;;;;4956811;28;20475;-81
2022/04/10 01:04:19;;;;;;;10.98;3.63;;;6.60;99.90;;;;;;4957179;28;20099;-81
2022/04/10 01:06:50;;;;;;;10.13;3.35;;;6.60;99.90;;;;;;4957039;28;20034;-81
2022/04/10 01:09:17;;;;;;;10.23;3.60;;;6.60;99.90;;;;;;4954891;29;20034;-81
2022/04/10 01:11:43;;;;;;;11.50;4.07;;;6.60;99.90;;;;;;4956577;28;20035;-81
2022/04/10 01:14:09;;;;;;;13.75;3.47;;;6.50;99.90;;;;;;4955289;28;20027;-81
2022/04/10 01:16:36;;;;;;;9.07;3.20;;;6.70;99.90;;;;;;4956923;28;20020;-81
2022/04/10 01:19:03;;;;;;;10.85;3.40;;;6.50;99.90;;;;;;4956611;28;20035;-81
2022/04/10 01:21:33;;;;;;;7.32;3.20;;;6.50;99.90;;;;;;4956584;28;20034;-81
2022/04/10 01:23:59;;;;;;;11.45;3.30;;;6.50;99.90;;;;;;4955644;28;20023;-81
2022/04/10 01:26:26;;;;;;;13.63;3.30;;;6.50;99.90;;;;;;4956167;28;20011;-81
2022/04/10 01:29:04;;;;;;;7.70;3.30;;;6.60;99.90;;;;;;4956460;28;20058;-81
2022/04/10 01:31:32;;;;;;;14.35;4.28;;;6.60;99.90;;;;;;4956476;28;20031;-81
2022/04/10 01:34:01;;;;;;;18.55;3.50;;;6.60;99.90;;;;;;4954441;29;20028;-80
2022/04/10 01:36:29;;;;;;;7.47;3.08;;;6.60;99.90;;;;;;4956196;28;20034;-81
2022/04/10 01:38:56;;;;;;;12.55;3.22;;;6.50;99.90;;;;;;4936554;29;20058;-80
2022/04/10 01:41:26;;;;;;;9.40;3.70;;;6.40;99.90;;;;;;4937355;29;20036;-80
2022/04/10 01:43:53;;;;;;;7.60;3.40;;;6.30;99.90;;;;;;4937068;29;20480;-81
2022/04/10 01:46:20;;;;;;;11.27;3.03;;;6.20;99.90;;;;;;4944649;29;20031;-81
2022/04/10 01:48:46;;;;;;;11.18;2.90;;;6.10;99.90;;;;;;4956042;28;20034;-81
2022/04/10 01:51:12;;;;;;;10.88;2.67;;;6.00;99.90;;;;;;4954625;29;20113;-81
2022/04/10 01:53:38;;;;;;;6.70;2.53;;;5.90;99.90;;;;;;4956004;28;20023;-81
2022/04/10 01:56:05;;;;;;;9.75;3.45;;;5.80;99.90;;;;;;4955889;28;20443;-81
2022/04/10 01:58:33;;;;;;;12.07;3.70;;;5.70;99.90;;;;;;4954310;29;20051;-81
2022/04/10 02:01:02;;;;;;;7.20;2.85;;;5.70;99.90;;;;;;4955939;28;20062;-81
2022/04/10 02:03:28;;;;;;;6.72;3.17;;;5.80;99.90;;;;;;4954421;29;20423;-81
2022/04/10 02:05:53;;;;;;;7.70;2.58;;;5.80;99.90;;;;;;4955534;28;20080;-81
2022/04/10 02:08:19;;;;;;;7.88;3.00;;;5.90;99.90;;;;;;4955542;28;20024;-81
2022/04/10 02:10:45;;;;;;;12.70;3.53;;;5.90;99.90;;;;;;4955930;28;20027;-81
2022/04/10 02:13:11;;;;;;;11.73;3.65;;;5.80;99.90;;;;;;4954830;28;20068;-81
2022/04/10 02:15:37;;;;;;;6.40;2.80;;;5.70;99.90;;;;;;4955859;28;20056;-81
2022/04/10 02:18:05;;;;;;;9.00;3.08;;;5.90;99.90;;;;;;4955177;28;20384;-81
2022/04/10 02:20:30;;;;;;;9.18;2.80;;;5.80;99.90;;;;;;4955224;29;20038;-81
2022/04/10 02:22:56;;;;;;;11.15;3.40;;;5.60;99.90;;;;;;4954352;29;20027;-81
2022/04/10 02:25:22;;;;;;;10.60;3.22;;;5.90;99.90;;;;;;4955345;29;20027;-81
2022/04/10 02:27:48;;;;;;;8.25;2.90;;;5.80;99.90;;;;;;4955539;28;20011;-81
2022/04/10 02:30:13;;;;;;;6.57;2.95;;;5.80;99.90;;;;;;4953870;29;20039;-80
2022/04/10 02:32:40;;;;;;;7.32;2.80;;;5.80;99.90;;;;;;4953486;29;20122;-81
2022/04/10 02:35:07;;;;;;;12.98;3.40;;;5.80;99.90;;;;;;4954168;28;20023;-80
2022/04/10 02:37:33;;;;;;;8.93;3.42;;;5.70;99.90;;;;;;4954868;28;20028;-81
2022/04/10 02:39:59;;;;;;;6.75;2.72;;;5.60;99.90;;;;;;4954506;28;20102;-81
2022/04/10 02:42:25;;;;;;;6.80;2.90;;;5.70;99.90;;;;;;4955204;28;20026;-81
2022/04/10 02:44:50;;;;;;;8.70;3.58;;;5.80;99.90;;;;;;4954858;28;20035;-81
2022/04/10 02:47:16;;;;;;;7.82;2.55;;;5.70;99.90;;;;;;4954525;28;20110;-81
2022/04/10 02:49:42;;;;;;;6.95;2.88;;;5.60;99.90;;;;;;4954865;29;20110;-81
2022/04/10 02:52:08;;;;;;;6.15;2.72;;;5.60;99.90;;;;;;4955216;29;20106;-81
2022/04/10 02:54:33;;;;;;;7.50;2.67;;;5.60;99.90;;;;;;4954989;29;20059;-81
2022/04/10 02:56:59;;;;;;;9.40;2.90;;;5.70;99.90;;;;;;4954696;29;20026;-81
2022/04/10 02:59:25;;;;;;;9.77;3.10;;;5.80;99.90;;;;;;4954971;29;20025;-81
2022/04/10 03:01:50;;;;;;;8.68;2.90;;;5.80;99.90;;;;;;4954595;29;20027;-80
2022/04/10 03:04:17;;;;;;;6.25;2.78;;;5.80;99.90;;;;;;4954483;28;20035;-81
2022/04/10 03:06:42;;;;;;;9.43;3.15;;;5.90;99.90;;;;;;4954200;28;20019;-81
2022/04/10 03:09:08;;;;;;;8.05;3.08;;;5.80;99.90;;;;;;4953244;29;20034;-81
2022/04/10 03:11:34;;;;;;;7.90;2.28;;;5.80;99.90;;;;;;4955084;28;20384;-80
2022/04/10 03:14:00;;;;;;;6.43;2.90;;;5.80;99.90;;;;;;4954468;28;20031;-80
2022/04/10 03:16:26;;;;;;;6.57;2.45;;;5.80;99.90;;;;;;4954778;28;20086;-81
2022/04/10 03:18:51;;;;;;;7.93;2.92;;;5.80;99.90;;;;;;4954484;28;20035;-81
2022/04/10 03:21:20;;;;;;;7.97;2.67;;;5.70;99.90;;;;;;4953482;28;20051;-80
2022/04/10 03:23:46;;;;;;;5.78;2.30;;;5.60;99.90;;;;;;4953913;28;20023;-81
2022/04/10 03:26:12;;;;;;;7.55;2.38;;;5.60;99.90;;;;;;4954610;29;20030;-81
2022/04/10 03:28:38;;;;;;;10.02;2.60;;;5.60;99.90;;;;;;4954391;29;20455;-81
2022/04/10 03:31:03;;;;;;;6.72;2.40;;;5.50;99.90;;;;;;4954777;29;20023;-81
2022/04/10 03:33:29;;;;;;;6.97;2.30;;;5.40;99.90;;;;;;4953636;29;20039;-80
2022/04/10 03:35:56;;;;;;;5.88;2.10;;;5.40;99.90;;;;;;4954039;29;20038;-80
2022/04/10 03:38:21;;;;;;;7.78;2.25;;;5.40;99.90;;;;;;4954370;29;20535;-81
2022/04/10 03:40:47;;;;;;;5.22;2.05;;;5.40;99.90;;;;;;4954568;28;20106;-81
2022/04/10 03:43:14;;;;;;;6.15;2.17;;;5.30;99.90;;;;;;4954566;28;20035;-81
2022/04/10 03:45:41;;;;;;;5.55;2.10;;;5.30;99.90;;;;;;4954524;28;20051;-81
2022/04/10 03:48:07;;;;;;;6.00;2.22;;;5.30;99.90;;;;;;4953712;28;20034;-81
2022/04/10 03:50:34;;;;;;;7.05;2.45;;;5.20;99.90;;;;;;4954357;28;20023;-81
2022/04/10 03:53:03;;;;;;;8.52;2.80;;;5.00;99.90;;;;;;4953106;29;20035;-81
2022/04/10 03:55:29;;;;;;;4.97;2.33;;;5.00;99.90;;;;;;4952851;29;20395;-81
2022/04/10 03:57:55;;;;;;;5.28;2.30;;;4.90;99.90;;;;;;4952566;29;20051;-81
2022/04/10 04:00:21;;;;;;;9.00;2.40;;;4.70;99.90;;;;;;4954040;28;20023;-80
2022/04/10 04:02:47;;;;;;;6.72;2.20;;;4.80;99.90;;;;;;4954256;28;20035;-80
2022/04/10 04:05:13;;;;;;;8.70;2.47;;;4.70;99.90;;;;;;4953921;28;20066;-80
2022/04/10 04:07:39;;;;;;;7.10;2.50;;;4.60;99.90;;;;;;4953771;28;20510;-81
2022/04/10 04:10:06;;;;;;;7.25;2.60;;;4.70;99.90;;;;;;4953097;29;20031;-81
2022/04/10 04:12:34;;;;;;;5.18;2.25;;;4.70;99.90;;;;;;4952946;29;20030;-81
2022/04/10 04:15:00;;;;;;;8.73;2.30;;;4.70;99.90;;;;;;4952906;29;20027;-81
2022/04/10 04:17:27;;;;;;;7.15;2.53;;;4.60;99.90;;;;;;4953751;28;20082;-81
2022/04/10 04:19:53;;;;;;;7.50;2.63;;;4.50;99.90;;;;;;4954217;29;20047;-81
2022/04/10 04:22:19;;;;;;;8.38;2.83;;;4.50;99.90;;;;;;4953987;28;20031;-80
2022/04/10 04:24:45;;;;;;;10.45;2.78;;;4.50;99.90;;;;;;4954053;28;20036;-81
2022/04/10 04:27:11;;;;;;;10.02;2.70;;;4.30;99.90;;;;;;4954041;28;20019;-80
2022/04/10 04:29:37;;;;;;;15.50;2.47;;;4.30;99.90;;;;;;4953774;28;20023;-80
2022/04/10 04:32:03;;;;;;;6.70;2.20;;;4.30;99.90;;;;;;4953905;28;20438;-80
2022/04/10 04:34:28;;;;;;;10.57;2.58;;;4.30;99.90;;;;;;4952444;28;20027;-80
2022/04/10 04:36:54;;;;;;;9.75;2.95;;;4.30;99.90;;;;;;4956047;29;20530;-80
2022/04/10 04:39:20;;;;;;;8.60;2.63;;;4.30;99.90;;;;;;4957453;28;20039;-80
2022/04/10 04:41:45;;;;;;;4.78;2.42;;;4.30;99.90;;;;;;4955759;29;20085;-80
2022/04/10 04:44:12;;;;;;;5.97;2.70;;;4.20;99.90;;;;;;4957634;29;20024;-80
2022/04/10 04:46:37;;;;;;;9.75;2.20;;;4.20;99.90;;;;;;4956395;28;20118;-80
2022/04/10 04:49:04;;;;;;;9.82;2.13;;;4.20;99.90;;;;;;4957171;28;20102;-81
2022/04/10 04:51:34;;;;;;;8.18;2.60;;;4.20;99.90;;;;;;4957336;28;20038;-81
2022/04/10 04:54:01;;;;;;;6.22;2.53;;;4.30;99.90;;;;;;4957217;28;20031;-81
2022/04/10 04:56:27;;;;;;;8.63;2.30;;;4.40;99.90;;;;;;4956947;28;20403;-80
2022/04/10 04:58:53;;;;;;;7.80;2.15;;;4.60;99.90;;;;;;4956974;28;20047;-80
2022/04/10 05:01:18;;;;;;;7.10;2.10;;;4.60;99.90;;;;;;4956494;28;20043;-80
2022/04/10 05:03:44;;;;;;;7.28;2.35;;;4.50;99.90;;;;;;4955640;29;20451;-80
2022/04/10 05:06:10;;;;;;;6.95;2.20;;;4.60;99.90;;;;;;4957112;28;20058;-81
2022/04/10 05:08:35;;;;;;;6.90;2.17;;;4.50;99.90;;;;;;4956786;28;20066;-81
2022/04/10 05:11:01;;;;;;;5.75;1.95;;;4.40;99.90;;;;;;4957096;28;20031;-81
2022/04/10 05:13:27;;;;;;;7.13;2.05;;;4.50;99.90;;;;;;4956950;28;20061;-81
2022/04/10 05:15:54;;;;;;;6.22;2.20;;;4.60;99.90;;;;;;4956481;28;20035;-80
2022/04/10 05:18:19;;;;;;;6.60;2.22;;;4.60;99.90;;;;;;4955563;29;20019;-81
2022/04/10 05:20:48;;;;;;;5.82;2.20;;;4.60;99.90;;;;;;4955031;29;20035;-80
2022/04/10 05:23:18;;;;;;;6.25;1.55;;;4.50;99.90;;;;;;4949760;29;20388;-81
2022/04/10 05:25:44;;;;;;;4.95;1.65;;;4.50;99.90;;;;;;4937400;29;20081;-81
2022/04/10 05:28:10;;;;;;;5.18;2.05;;;4.60;99.90;;;;;;4937503;29;20020;-81
2022/04/10 05:30:36;;;;;;;5.78;1.90;;;4.60;99.90;;;;;;4936933;29;20083;-81
2022/04/10 05:33:02;;;;;;;6.68;2.00;;;4.50;99.90;;;;;;4948070;29;20031;-80
2022/04/10 05:35:27;;;;;;;6.28;2.00;;;4.60;99.90;;;;;;4954472;29;20031;-80
2022/04/10 05:37:53;;;;;;;5.38;1.50;;;4.70;99.90;;;;;;4955037;29;20027;-80
2022/04/10 05:40:19;;;;;;;6.05;2.03;;;4.70;99.90;;;;;;4956181;28;20035;-80
2022/04/10 05:42:45;;;;;;;4.30;1.80;;;4.60;99.90;;;;;;4954865;29;20027;-80
2022/04/10 05:45:12;;;;;;;8.05;2.10;;;4.60;99.90;;;;;;4956098;28;20058;-81
2022/04/10 05:47:39;;;;;;;5.80;2.38;;;4.60;99.90;;;;;;4954752;28;20023;-80
2022/04/10 05:50:05;;;;;;;7.50;1.60;;;4.60;99.90;;;;;;4954020;29;21683;-80
2022/04/10 05:52:31;;;;;;;5.53;1.88;;;4.70;99.90;;;;;;4956040;28;20019;-80
2022/04/10 05:55:00;;;;;;;5.78;1.90;;;4.80;99.90;;;;;;4946028;29;20083;-81
2022/04/10 05:57:26;;;;;;;6.18;1.77;;;4.90;99.90;;;;;;4935388;29;20051;-80
2022/04/10 05:59:52;;;;;;;6.80;2.28;;;4.90;99.90;;;;;;4953272;29;20395;-81
2022/04/10 06:02:17;;;;;;;8.68;2.00;;;4.80;99.90;;;;;;4955609;28;20507;-80
2022/04/10 06:04:43;;;;;;;6.50;2.30;;;4.70;99.90;;;;;;4955109;28;20026;-80
2022/04/10 06:07:09;;;;;;;8.82;2.35;;;4.80;99.90;;;;;;4954696;29;20027;-81
2022/04/10 06:09:34;;;;;;;6.78;2.03;;;4.80;99.90;;;;;;4955890;28;20019;-81
2022/04/10 06:12:00;;;;;;;6.82;2.17;;;4.80;99.90;;;;;;4955781;28;20050;-81
2022/04/10 06:14:25;;;;;;;6.68;2.40;;;4.80;99.90;;;;;;4955327;28;20038;-81
2022/04/10 06:16:51;;;;;;;4.85;2.00;;;4.90;99.90;;;;;;4954894;29;20027;-80
2022/04/10 06:19:18;;;;;;;6.13;2.00;;;4.80;99.90;;;;;;4955798;28;20098;-80
2022/04/10 06:21:45;;;;;;;3.90;1.85;;;5.00;99.90;;;;;;4953855;29;20511;-80
2022/04/10 06:24:10;;;;;;;7.55;1.73;;;5.20;99.90;;;;;;4955589;28;20436;-80
2022/04/10 06:26:36;;;;;;;7.63;1.67;;;5.40;99.90;;;;;;4955372;28;20058;-80
2022/04/10 06:29:02;;;;;;;5.65;2.00;;;5.50;99.90;;;;;;4955367;29;20048;-80
2022/04/10 06:31:28;;;;;;;4.03;2.00;;;5.70;99.90;;;;;;4955437;28;20114;-80
2022/04/10 06:33:56;;;;;;;6.25;1.85;;;5.80;99.90;;;;;;4943468;29;20563;-80
2022/04/10 06:36:22;;;;;;;5.28;1.67;;;5.90;99.90;;;;;;4936308;29;20106;-81
2022/04/10 06:38:49;;;;;;;10.70;2.17;;;5.90;99.90;;;;;;4935922;29;20031;-81
2022/04/10 06:41:15;;;;;;;9.38;2.30;;;6.10;99.90;;;;;;4947086;29;20030;-80
2022/04/10 06:43:41;;;;;;;5.57;2.25;;;6.20;99.90;;;;;;4953600;28;20058;-75
2022/04/10 06:46:07;;;;;;;4.53;1.80;;;6.30;99.90;;;;;;4954256;28;20047;-79
2022/04/10 06:48:35;;;;;;;6.60;1.92;;;6.30;99.90;;;;;;4954815;28;20023;-79
2022/04/10 06:51:03;;;;;;;5.85;2.13;;;6.20;99.90;;;;;;4948530;29;20042;-81
2022/04/10 06:53:28;;;;;;;5.97;1.58;;;6.30;99.90;;;;;;4954590;28;20033;-79
2022/04/10 06:55:54;;;;;;;6.60;1.80;;;6.30;99.90;;;;;;4954038;28;20491;-80
2022/04/10 06:58:22;;;;;;;6.88;1.70;;;6.30;99.90;;;;;;4952378;28;20419;-81
2022/04/10 07:00:49;;;;;;;5.13;1.92;;;6.20;99.90;;;;;;4955950;28;20020;-80
2022/04/10 07:03:14;;;;;;;5.47;1.33;;;6.30;99.90;;;;;;4952785;29;20166;-79
2022/04/10 07:05:40;;;;;;;4.57;1.90;;;6.40;99.90;;;;;;4954523;28;20094;-80
2022/04/10 07:08:07;;;;;;;6.55;1.85;;;6.60;99.90;;;;;;4950088;29;20042;-79
2022/04/10 07:10:33;;;;;;;6.55;1.80;;;6.60;99.90;;;;;;4953617;28;20042;-79
2022/04/10 07:12:59;;;;;;;3.15;1.55;;;6.60;99.90;;;;;;4953592;28;20517;-79
2022/04/10 07:15:25;;;;;;;5.85;1.92;;;6.50;99.90;;;;;;4953816;28;20023;-79
2022/04/10 07:17:52;;;;;;;3.67;1.98;;;6.80;99.90;;;;;;4953608;28;20416;-79
2022/04/10 07:20:17;;;;;;;5.70;1.73;;;6.80;99.90;;;;;;4953474;28;20031;-79
2022/04/10 07:25:27;;;;;;;4.45;1.70;;;6.80;99.90;;;;;;4949022;29;20019;-80
2022/04/10 07:27:53;;;;;;;6.85;1.42;;;7.00;99.90;;;;;;4953243;28;20023;-79
2022/04/10 07:30:19;;;;;;;5.47;1.60;;;7.00;99.90;;;;;;4953460;28;20472;-80
2022/04/10 07:32:52;;;;;;;5.82;1.45;;;7.20;99.90;;;;;;4953586;28;20110;-79
2022/04/10 07:35:18;;;;;;;6.32;1.90;;;7.30;99.90;;;;;;4953499;29;20500;-79
2022/04/10 07:37:45;;;;;;;6.88;1.45;;;7.30;99.90;;;;;;4953503;28;20031;-79
2022/04/10 07:40:10;;;;;;;9.40;1.58;;;7.40;99.90;;;;;;4952697;28;20110;-80
2022/04/10 07:42:40;;;;;;;5.70;2.13;;;7.60;99.90;;;;;;4953147;28;20158;-79
2022/04/10 07:45:07;;;;;;;4.55;1.23;;;7.70;99.90;;;;;;4946353;28;20102;-78
2022/04/10 07:47:33;;;;;;;5.13;1.83;;;7.90;99.90;;;;;;4953432;28;20034;-77
2022/04/10 07:49:58;;;;;;;6.68;1.55;;;8.00;99.90;;;;;;4952981;29;20023;-80
2022/04/10 07:52:24;;;;;;;5.45;1.90;;;8.10;99.90;;;;;;4953895;28;20049;-79
2022/04/10 07:54:52;;;;;;;6.43;2.08;;;8.20;99.10;;;;;;4954421;28;20035;-79
2022/04/10 09:04:46;;;;;;;3.65;1.20;;;13.40;69.40;;;;;;5350696;23;20076;-80
2022/04/10 09:07:12;;;;;;;4.88;1.23;;;13.90;70.40;;;;;;4994872;28;20497;-76
2022/04/10 09:09:42;;;;;;;2.67;1.00;;;14.30;73.90;;;;;;4995191;28;20033;-76
2022/04/10 09:12:08;;;;;;;3.20;1.30;;;14.70;72.90;;;;;;4994222;28;20059;-76
2022/04/10 09:14:37;;;;;;;7.65;1.50;;;14.80;70.90;;;;;;4995975;28;20102;-76
2022/04/10 09:17:17;;;;;;;5.88;1.30;;;15.00;70.50;;;;;;4995414;28;20026;-77
2022/04/10 09:19:47;;;;;;;5.07;1.30;;;15.20;69.50;;;;;;4995566;28;20023;-78
2022/04/10 09:22:26;;;;;;;2.70;0.85;;;15.40;69.00;;;;;;4992253;28;20033;-77
2022/04/10 09:25:04;;;;;;;3.72;1.05;;;15.00;68.30;;;;;;4993570;28;20113;-77
2022/04/10 09:27:52;;;;;;;3.15;1.42;;;14.70;68.40;;;;;;4995382;28;20406;-77
2022/04/10 09:30:20;;;;;;;2.95;0.95;;;15.00;67.10;;;;;;4994103;28;20116;-78
2022/04/10 09:32:48;;;;;;;3.72;1.27;;;14.80;65.50;;;;;;4994992;28;20043;-77
2022/04/10 09:35:19;;;;;;;2.70;0.95;;;15.20;65.70;;;;;;4994949;28;20034;-75
2022/04/10 09:37:52;;;;;;;6.85;1.40;;;15.20;65.90;;;;;;4979739;28;20088;-76
2022/04/10 09:40:25;;;;;;;4.50;1.35;;;15.30;66.90;;;;;;4981408;28;20081;-78
2022/04/10 09:43:10;;;;;;;7.45;1.30;;;15.30;66.60;;;;;;4993768;28;20493;-79
2022/04/10 09:45:46;;;;;;;5.43;1.13;;;15.30;64.50;;;;;;4986910;28;20489;-77
2022/04/10 09:48:31;;;;;;;4.00;0.90;;;15.40;64.10;;;;;;4994666;28;20026;-78
2022/04/10 09:50:58;;;;;;;5.47;1.30;;;15.80;63.00;;;;;;4978252;28;20050;-75
2022/04/10 09:53:26;;;;;;;13.35;2.08;;;16.00;61.50;;;;;;4984610;28;20030;-79
2022/04/10 09:56:00;;;;;;;5.03;1.17;;;15.80;62.30;;;;;;4993705;28;20034;-77
2022/04/10 09:58:26;;;;;;;5.80;1.42;;;16.00;61.10;;;;;;4994587;28;20034;-77
2022/04/10 10:00:54;;;;;;;7.72;1.23;;;15.90;61.00;;;;;;4995023;28;20034;-77
2022/04/10 10:03:25;;;;;;;6.80;1.20;;;16.00;60.70;;;;;;4991454;28;20030;-78
2022/04/10 10:05:54;;;;;;;6.70;1.20;;;15.90;59.60;;;;;;4968171;28;20090;-76
2022/04/10 10:08:22;;;;;;;6.80;1.30;;;16.00;59.90;;;;;;4973658;28;20025;-81
2022/04/10 10:10:48;;;;;;;5.80;1.40;;;16.40;59.10;;;;;;4974144;28;20117;-77
2022/04/10 10:13:14;;;;;;;3.40;1.15;;;16.50;58.70;;;;;;4974939;28;20102;-77
2022/04/10 10:15:42;;;;;;;4.05;0.90;;;16.40;59.30;;;;;;4973757;28;20118;-79
2022/04/10 10:18:13;;;;;;;3.20;0.98;;;16.20;59.00;;;;;;4972954;28;20070;-78
2022/04/10 10:20:42;;;;;;;6.45;0.93;;;16.30;58.60;;;;;;4972459;28;20380;-78
2022/04/10 10:23:10;;;;;;;4.28;1.48;;;16.50;58.50;;;;;;4973261;28;20391;-78
2022/04/10 10:25:59;;;;;;;8.93;1.90;;;16.10;57.80;;;;;;4973781;28;20023;-78
2022/04/10 10:28:56;;;;;;;14.57;1.92;;;16.40;58.30;;;;;;4974290;28;20503;-78
2022/04/10 10:31:40;;;;;;;4.55;0.90;;;16.50;56.70;;;;;;4959306;28;20031;-78
2022/04/10 10:34:08;;;;;;;5.05;1.15;;;16.70;57.20;;;;;;4955481;28;20031;-88
2022/04/10 10:36:34;;;;;;;3.85;1.08;;;16.60;56.40;;;;;;4974652;28;20031;-80
2022/04/10 10:39:03;;;;;;;5.20;1.10;;;16.40;57.50;;;;;;4972961;28;20034;-84
2022/04/10 10:41:29;;;;;;;4.45;1.20;;;16.50;57.30;;;;;;4973055;28;20031;-87
2022/04/10 10:43:56;;;;;;;5.55;1.40;;;16.70;56.40;;;;;;4968905;28;20023;-78
2022/04/10 10:46:26;;;;;;;2.53;1.13;;;16.80;55.90;;;;;;4973128;28;20034;-85
2022/04/10 10:49:17;;;;;;;3.00;1.10;;;16.80;55.50;;;;;;4965266;28;20023;-84
2022/04/10 10:51:52;;;;;;;5.30;1.52;;;16.50;55.20;;;;;;4972640;28;20403;-83
2022/04/10 10:54:24;;;;;;;2.38;1.00;;;16.50;54.40;;;;;;4972429;28;20019;-80
2022/04/10 10:56:53;;;;;;;3.03;0.93;;;16.30;54.90;;;;;;4973866;28;20559;-77
2022/04/10 10:59:31;;;;;;;2.05;0.90;;;16.20;54.30;;;;;;4972736;28;20548;-78
2022/04/10 11:01:59;;;;;;;3.70;0.98;;;16.60;55.50;;;;;;4971587;28;20030;-79
2022/04/10 11:04:28;;;;;;;5.88;1.10;;;17.10;56.40;;;;;;4971168;28;20510;-79
2022/04/10 11:06:54;;;;;;;3.85;1.02;;;17.20;54.80;;;;;;4972581;28;20026;-79
2022/04/10 11:09:20;;;;;;;2.75;1.02;;;17.30;55.30;;;;;;4973639;28;20023;-82
2022/04/10 11:11:47;;;;;;;13.13;1.58;;;17.40;54.30;;;;;;4973432;28;20041;-80
2022/04/10 11:14:45;;;;;;;8.38;1.23;;;17.30;53.40;;;;;;4971887;28;20022;-79
2022/04/10 11:17:25;;;;;;;5.20;1.00;;;17.20;52.80;;;;;;4956141;28;20113;-78
2022/04/10 11:19:56;;;;;;;7.70;1.02;;;16.80;53.00;;;;;;4973384;28;20446;-79
2022/04/10 11:22:33;;;;;;;11.87;1.93;;;16.80;52.80;;;;;;4970563;28;20379;-79
2022/04/10 11:25:03;;;;;;;5.22;1.42;;;17.40;52.80;;;;;;4973505;28;20018;-80
2022/04/10 11:27:44;;;;;;;6.40;1.10;;;17.60;52.20;;;;;;4973361;28;20475;-79
2022/04/10 11:30:21;;;;;;;12.95;1.75;;;17.40;51.50;;;;;;4972925;28;20553;-79
2022/04/10 11:32:52;;;;;;;5.32;1.50;;;17.80;51.30;;;;;;4952558;29;20624;-79
2022/04/10 11:35:36;;;;;;;3.00;0.90;;;17.40;50.90;;;;;;4967710;28;20482;-78
2022/04/10 11:38:03;;;;;;;2.83;1.13;;;17.50;51.30;;;;;;4972277;28;20023;-78
2022/04/10 11:40:34;;;;;;;4.10;1.08;;;17.50;50.50;;;;;;4973089;28;20517;-78
2022/04/10 11:43:02;;;;;;;3.97;1.10;;;17.40;50.80;;;;;;4972000;28;20055;-79
2022/04/10 11:45:30;;;;;;;3.83;1.45;;;17.80;52.30;;;;;;4975761;28;20034;-79
2022/04/10 11:47:56;;;;;;;2.97;1.10;;;17.60;52.10;;;;;;4976427;28;20029;-77
2022/04/10 11:50:24;;;;;;;2.95;1.08;;;17.90;52.10;;;;;;4975850;28;20031;-78
2022/04/10 11:53:11;;;;;;;2.58;1.10;;;17.90;52.30;;;;;;4958518;29;20035;-83
2022/04/10 11:55:42;;;;;;;5.10;1.08;;;17.80;51.80;;;;;;4976095;28;20039;-82
2022/04/10 11:58:16;;;;;;;4.40;1.02;;;17.80;51.70;;;;;;4963568;28;20077;-84
2022/04/10 12:00:51;;;;;;;6.45;1.10;;;17.50;49.90;;;;;;4973743;28;20031;-84
2022/04/10 12:03:22;;;;;;;3.08;1.00;;;17.80;50.00;;;;;;4975206;28;20031;-82
2022/04/10 12:05:49;;;;;;;3.47;1.10;;;17.90;51.20;;;;;;4975833;28;20054;-82
2022/04/10 12:08:15;;;;;;;4.95;1.00;;;18.50;51.20;;;;;;4969863;28;20363;-83
2022/04/10 12:10:51;;;;;;;3.17;1.02;;;18.10;50.20;;;;;;4975909;28;20033;-83
2022/04/10 12:13:16;;;;;;;12.88;1.80;;;18.10;49.80;;;;;;4976914;28;20031;-83
2022/04/10 12:15:42;;;;;;;4.57;1.25;;;18.40;49.80;;;;;;4976812;28;20026;-83
2022/04/10 12:18:13;;;;;;;5.30;1.25;;;18.20;50.00;;;;;;4976256;28;20022;-83
2022/04/10 12:20:41;;;;;;;18.90;2.60;;;17.90;50.00;;;;;;4976910;28;20486;-82
2022/04/10 12:23:20;;;;;;;8.48;1.27;;;18.10;49.20;;;;;;4962378;28;20078;-82
2022/04/10 12:25:51;;;;;;;4.28;0.93;;;17.80;48.80;;;;;;4957734;28;20027;-83
2022/04/10 12:28:17;;;;;;;3.70;1.10;;;18.10;49.10;;;;;;4970446;28;20573;-82
2022/04/10 12:30:44;;;;;;;8.38;1.33;;;18.10;49.90;;;;;;4975130;28;20026;-83
2022/04/10 12:33:11;;;;;;;1.80;0.85;;;18.10;49.20;;;;;;4975384;28;20117;-82
2022/04/10 12:35:38;;;;;;;4.82;1.30;;;18.50;49.60;;;;;;4975589;28;20438;-82
2022/04/10 12:38:05;;;;;;;3.03;0.93;;;18.00;48.90;;;;;;4973391;28;20390;-83
2022/04/10 12:40:31;;;;;;;1.92;1.02;;;17.60;49.30;;;;;;4955939;29;20035;-83
2022/04/10 12:42:59;;;;;;;5.20;1.48;;;18.00;49.90;;;;;;4970701;28;20055;-82
2022/04/10 12:45:27;;;;;;;3.38;1.10;;;17.90;49.70;;;;;;4974829;28;20026;-84
2022/04/10 12:47:53;;;;;;;5.75;1.30;;;17.70;48.40;;;;;;4975467;28;20026;-82
2022/04/10 12:50:19;;;;;;;8.40;1.00;;;17.60;48.50;;;;;;4974082;28;20038;-82
2022/04/10 12:52:46;;;;;;;4.05;1.00;;;17.70;48.00;;;;;;4957573;29;20023;-82
2022/04/10 12:55:23;;;;;;;3.20;1.00;;;17.80;48.80;;;;;;4969659;28;20030;-82
2022/04/10 12:57:52;;;;;;;5.25;1.17;;;17.70;48.70;;;;;;4977059;28;20022;-84
2022/04/10 13:00:32;;;;;;;4.65;1.10;;;18.20;48.80;;;;;;4975973;28;20367;-84
2022/04/10 13:03:21;;;;;;;3.20;1.25;;;18.50;49.40;;;;;;4974775;28;20015;-84
2022/04/10 13:06:06;;;;;;;4.30;1.00;;;18.40;47.90;;;;;;4976498;28;20401;-83
2022/04/10 13:08:39;;;;;;;2.85;0.93;;;18.40;46.90;;;;;;4976209;28;20054;-83
2022/04/10 13:11:10;;;;;;;4.00;0.98;;;18.30;47.70;;;;;;4975229;28;20023;-83
2022/04/10 13:13:58;;;;;;;4.40;0.88;;;18.30;46.50;;;;;;4956669;29;20478;-83
2022/04/10 13:16:28;;;;;;;1.42;0.88;;;18.10;47.20;;;;;;4957368;28;20503;-84
2022/04/10 13:18:55;;;;;;;5.07;1.35;;;18.10;47.10;;;;;;4976340;28;20402;-84
2022/04/10 13:21:24;;;;;;;2.10;1.13;;;18.00;47.20;;;;;;4976036;28;20030;-83
2022/04/10 13:23:50;;;;;;;4.88;0.80;;;18.30;47.50;;;;;;4976249;28;20491;-84
2022/04/10 13:26:24;;;;;;;6.03;1.00;;;18.20;47.00;;;;;;4974847;28;20023;-84
2022/04/10 13:28:49;;;;;;;4.05;1.00;;;18.20;47.10;;;;;;4974583;28;20035;-84
2022/04/10 13:31:15;;;;;;;2.75;0.90;;;18.20;46.60;;;;;;4975814;28;20025;-84
2022/04/10 13:33:41;;;;;;;4.20;0.90;;;18.10;46.50;;;;;;4974491;28;20031;-84
2022/04/10 13:36:07;;;;;;;5.80;0.88;;;18.30;48.90;;;;;;4972976;28;20027;-84
2022/04/10 13:38:32;;;;;;;2.92;1.00;;;18.10;47.80;;;;;;4975732;28;20033;-83
2022/04/10 13:40:58;;;;;;;4.43;1.02;;;18.00;47.50;;;;;;4975889;28;20038;-84
2022/04/10 13:43:24;;;;;;;3.17;0.95;;;17.80;47.70;;;;;;4974909;28;20094;-84
2022/04/10 13:45:50;;;;;;;6.20;0.68;;;17.80;47.70;;;;;;4974120;28;20042;-82
2022/04/10 13:48:15;;;;;;;2.55;0.90;;;18.00;47.40;;;;;;4975559;28;20027;-83
2022/04/10 13:50:41;;;;;;;4.85;1.73;;;18.20;47.20;;;;;;4975742;28;20106;-82
2022/04/10 13:53:07;;;;;;;4.00;0.93;;;18.10;47.20;;;;;;4974195;28;20026;-82
2022/04/10 13:55:32;;;;;;;2.70;1.25;;;17.90;47.80;;;;;;4972468;28;20061;-83
2022/04/10 13:57:58;;;;;;;2.63;0.85;;;18.00;47.50;;;;;;4976822;28;20022;-83
2022/04/10 14:00:24;;;;;;;1.92;0.75;;;18.10;47.50;;;;;;4974892;28;20451;-83
2022/04/10 14:02:49;;;;;;;3.20;0.95;;;18.10;48.10;;;;;;4973416;28;20497;-83
2022/04/10 14:05:15;;;;;;;3.70;0.95;;;18.30;47.70;;;;;;4973591;28;20892;-83